createdAt,value
2017-05-28T00:00:24.949Z,28.04
2017-05-28T00:01:24.974Z,28.02
2017-05-28T00:02:24.382Z,28.06
2017-05-28T00:03:25.040Z,28.03
2017-05-28T00:04:25.072Z,28.02
2017-05-28T00:05:25.105Z,28.02
2017-05-28T00:06:24.506Z,27.96
2017-05-28T00:07:24.847Z,28.03
2017-05-28T00:08:24.876Z,28.06
2017-05-28T00:09:25.221Z,27.93
2017-05-28T00:10:24.933Z,27.99
2017-05-28T00:11:24.974Z,28.03
2017-05-28T00:12:25.307Z,28.03
2017-05-28T00:13:25.344Z,27.99
2017-05-28T00:14:25.376Z,27.96
2017-05-28T00:15:25.401Z,27.94
2017-05-28T00:16:25.121Z,27.93
2017-05-28T00:17:25.471Z,27.99
2017-05-28T00:18:25.502Z,27.94
2017-05-28T00:19:25.772Z,27.99
2017-05-28T00:20:25.566Z,27.96
2017-05-28T00:21:25.273Z,28.04
2017-05-28T00:22:25.303Z,27.94
2017-05-28T00:23:25.648Z,28.03
2017-05-28T00:24:25.617Z,27.96
2017-05-28T00:25:25.709Z,28.02
2017-05-28T00:26:25.430Z,28.07
2017-05-28T00:27:25.768Z,27.94
2017-05-28T00:28:25.805Z,27.93
2017-05-28T00:29:25.776Z,27.99
2017-05-28T00:30:25.538Z,27.97
2017-05-28T00:31:25.578Z,27.99
2017-05-28T00:32:25.604Z,27.93
2017-05-28T00:33:25.952Z,27.96
2017-05-28T00:34:26.182Z,27.96
2017-05-28T00:35:26.006Z,28.02
2017-05-28T00:36:25.739Z,27.97
2017-05-28T00:37:26.070Z,27.9
2017-05-28T00:38:26.102Z,27.9
2017-05-28T00:39:26.070Z,27.94
2017-05-28T00:40:26.162Z,27.97
2017-05-28T00:41:26.198Z,27.92
2017-05-28T00:42:25.912Z,27.88
2017-05-28T00:43:25.944Z,27.87
2017-05-28T00:44:26.480Z,27.99
2017-05-28T00:45:26.314Z,27.87
2017-05-28T00:46:26.342Z,27.96
2017-05-28T00:47:26.371Z,27.85
2017-05-28T00:48:26.083Z,27.96
2017-05-28T00:49:26.689Z,27.88
2017-05-28T00:50:26.465Z,27.92
2017-05-28T00:51:26.490Z,27.97
2017-05-28T00:52:26.207Z,27.93
2017-05-28T00:53:26.249Z,27.93
2017-05-28T00:54:26.208Z,27.94
2017-05-28T00:55:26.302Z,27.9
2017-05-28T00:56:26.646Z,27.93
2017-05-28T00:57:26.674Z,27.9
2017-05-28T00:58:26.705Z,27.85
2017-05-28T00:59:26.937Z,27.92
2017-05-28T01:00:26.449Z,27.88
2017-05-28T01:01:26.798Z,27.9
2017-05-28T01:02:26.519Z,27.85
2017-05-28T01:03:26.856Z,27.88
2017-05-28T01:04:27.143Z,27.84
2017-05-28T01:05:26.921Z,27.92
2017-05-28T01:06:26.947Z,27.92
2017-05-28T01:07:26.980Z,27.9
2017-05-28T01:08:27.010Z,27.93
2017-05-28T01:09:27.289Z,27.93
2017-05-28T01:10:26.751Z,27.82
2017-05-28T01:11:27.111Z,27.75
2017-05-28T01:12:27.128Z,27.78
2017-05-28T01:13:27.165Z,27.79
2017-05-28T01:14:27.441Z,27.88
2017-05-28T01:15:27.218Z,27.82
2017-05-28T01:16:27.256Z,27.88
2017-05-28T01:17:26.661Z,27.79
2017-05-28T01:18:27.306Z,27.87
2017-05-28T01:19:27.281Z,27.87
2017-05-28T01:20:27.060Z,27.82
2017-05-28T01:21:27.087Z,27.78
2017-05-28T01:22:27.115Z,27.84
2017-05-28T01:23:27.460Z,27.81
2017-05-28T01:24:27.386Z,27.82
2017-05-28T01:25:27.215Z,27.82
2017-05-28T01:26:27.551Z,27.79
2017-05-28T01:27:27.271Z,27.79
2017-05-28T01:28:27.298Z,27.81
2017-05-28T01:29:27.274Z,27.82
2017-05-28T01:30:27.673Z,27.79
2017-05-28T01:31:27.700Z,27.82
2017-05-28T01:32:27.416Z,27.87
2017-05-28T01:33:27.455Z,27.85
2017-05-28T01:34:27.741Z,27.77
2017-05-28T01:35:27.510Z,27.82
2017-05-28T01:36:27.857Z,27.75
2017-05-28T01:37:27.575Z,27.82
2017-05-28T01:38:27.924Z,27.82
2017-05-28T01:39:27.330Z,27.82
2017-05-28T01:40:27.674Z,27.78
2017-05-28T01:41:27.711Z,27.75
2017-05-28T01:42:27.724Z,27.75
2017-05-28T01:43:28.065Z,27.74
2017-05-28T01:44:27.793Z,27.78
2017-05-28T01:45:27.511Z,27.79
2017-05-28T01:46:27.526Z,27.77
2017-05-28T01:47:28.187Z,27.75
2017-05-28T01:48:28.217Z,27.72
2017-05-28T01:49:27.934Z,27.81
2017-05-28T01:50:27.971Z,27.74
2017-05-28T01:51:28.006Z,27.78
2017-05-28T01:52:27.712Z,27.81
2017-05-28T01:53:28.370Z,27.77
2017-05-28T01:54:28.398Z,27.69
2017-05-28T01:55:28.114Z,27.72
2017-05-28T01:56:28.460Z,27.74
2017-05-28T01:57:28.493Z,27.78
2017-05-28T01:58:28.581Z,27.79
2017-05-28T01:59:28.602Z,27.69
2017-05-28T02:00:28.606Z,27.77
2017-05-28T02:01:28.615Z,27.7
2017-05-28T02:02:28.636Z,27.65
2017-05-28T02:03:28.365Z,27.77
2017-05-28T02:04:28.387Z,27.77
2017-05-28T02:05:28.414Z,27.67
2017-05-28T02:06:28.768Z,27.77
2017-05-28T02:07:28.792Z,27.78
2017-05-28T02:08:28.813Z,27.65
2017-05-28T02:09:28.538Z,27.75
2017-05-28T02:10:28.878Z,27.66
2017-05-28T02:11:28.592Z,27.69
2017-05-28T02:12:28.308Z,27.67
2017-05-28T02:13:28.657Z,27.69
2017-05-28T02:14:29.001Z,27.67
2017-05-28T02:15:29.026Z,27.63
2017-05-28T02:16:29.050Z,27.66
2017-05-28T02:17:28.773Z,27.75
2017-05-28T02:18:29.125Z,27.72
2017-05-28T02:19:28.833Z,27.67
2017-05-28T02:20:29.183Z,27.66
2017-05-28T02:21:28.895Z,27.7
2017-05-28T02:22:29.252Z,27.66
2017-05-28T02:23:29.283Z,27.62
2017-05-28T02:24:29.301Z,27.67
2017-05-28T02:25:29.326Z,27.72
2017-05-28T02:26:29.356Z,27.7
2017-05-28T02:27:29.401Z,27.66
2017-05-28T02:28:29.433Z,27.65
2017-05-28T02:29:29.136Z,27.66
2017-05-28T02:30:29.479Z,27.63
2017-05-28T02:31:29.512Z,27.7
2017-05-28T02:32:29.533Z,27.65
2017-05-28T02:33:28.941Z,27.7
2017-05-28T02:34:29.341Z,27.72
2017-05-28T02:35:29.315Z,27.6
2017-05-28T02:36:29.349Z,27.63
2017-05-28T02:37:29.385Z,27.59
2017-05-28T02:38:29.406Z,27.66
2017-05-28T02:39:29.441Z,27.62
2017-05-28T02:40:29.466Z,27.63
2017-05-28T02:41:29.501Z,27.6
2017-05-28T02:42:29.524Z,27.62
2017-05-28T02:43:29.562Z,27.57
2017-05-28T02:44:29.889Z,27.62
2017-05-28T02:45:29.616Z,27.57
2017-05-28T02:46:29.972Z,27.6
2017-05-28T02:47:29.989Z,27.63
2017-05-28T02:48:30.017Z,27.59
2017-05-28T02:49:29.769Z,27.55
2017-05-28T02:50:29.763Z,27.55
2017-05-28T02:51:29.800Z,27.72
2017-05-28T02:52:30.142Z,27.54
2017-05-28T02:53:29.854Z,27.62
2017-05-28T02:54:29.890Z,27.69
2017-05-28T02:55:29.918Z,27.67
2017-05-28T02:56:30.273Z,27.57
2017-05-28T02:57:29.659Z,27.55
2017-05-28T02:58:29.689Z,27.57
2017-05-28T02:59:30.043Z,27.47
2017-05-28T03:00:30.384Z,27.63
2017-05-28T03:01:30.100Z,27.46
2017-05-28T03:02:30.121Z,27.5
2017-05-28T03:03:30.466Z,27.57
2017-05-28T03:04:30.500Z,27.5
2017-05-28T03:05:30.530Z,27.6
2017-05-28T03:06:30.558Z,27.5
2017-05-28T03:07:30.593Z,27.47
2017-05-28T03:08:30.622Z,27.49
2017-05-28T03:09:30.651Z,27.55
2017-05-28T03:10:30.376Z,27.47
2017-05-28T03:11:30.401Z,27.6
2017-05-28T03:12:30.742Z,27.49
2017-05-28T03:13:30.772Z,27.57
2017-05-28T03:14:30.175Z,27.5
2017-05-28T03:15:31.087Z,27.54
2017-05-28T03:16:30.865Z,27.46
2017-05-28T03:17:30.577Z,27.63
2017-05-28T03:18:30.611Z,27.47
2017-05-28T03:19:30.952Z,27.46
2017-05-28T03:20:30.646Z,27.54
2017-05-28T03:21:31.055Z,27.54
2017-05-28T03:22:30.734Z,27.51
2017-05-28T03:23:31.075Z,27.54
2017-05-28T03:24:30.784Z,27.54
2017-05-28T03:25:31.023Z,27.49
2017-05-28T03:26:31.156Z,27.47
2017-05-28T03:27:31.186Z,27.5
2017-05-28T03:28:31.214Z,27.5
2017-05-28T03:29:30.937Z,27.47
2017-05-28T03:30:31.532Z,27.47
2017-05-28T03:31:31.000Z,27.5
2017-05-28T03:32:31.029Z,27.55
2017-05-28T03:33:31.371Z,27.37
2017-05-28T03:34:31.400Z,27.5
2017-05-28T03:35:31.681Z,27.49
2017-05-28T03:36:31.461Z,27.46
2017-05-28T03:37:31.491Z,27.5
2017-05-28T03:38:30.891Z,27.44
2017-05-28T03:39:31.239Z,27.47
2017-05-28T03:40:31.515Z,27.51
2017-05-28T03:41:31.609Z,27.49
2017-05-28T03:42:31.322Z,27.51
2017-05-28T03:43:31.359Z,27.5
2017-05-28T03:44:31.695Z,27.57
2017-05-28T03:45:31.977Z,27.41
2017-05-28T03:46:31.758Z,27.44
2017-05-28T03:47:31.477Z,27.44
2017-05-28T03:48:31.818Z,27.47
2017-05-28T03:49:31.852Z,27.5
2017-05-28T03:50:31.775Z,27.4
2017-05-28T03:51:31.593Z,27.59
2017-05-28T03:52:31.627Z,27.44
2017-05-28T03:53:31.975Z,27.49
2017-05-28T03:54:32.000Z,27.46
2017-05-28T03:55:32.281Z,27.44
2017-05-28T03:56:32.057Z,27.49
2017-05-28T03:57:32.094Z,27.43
2017-05-28T03:58:32.119Z,27.44
2017-05-28T03:59:31.844Z,27.37
2017-05-28T04:00:32.120Z,27.46
2017-05-28T04:01:32.222Z,27.41
2017-05-28T04:02:31.923Z,27.49
2017-05-28T04:03:31.952Z,27.49
2017-05-28T04:04:32.301Z,27.4
2017-05-28T04:05:32.576Z,27.46
2017-05-28T04:06:32.358Z,27.32
2017-05-28T04:07:32.386Z,27.4
2017-05-28T04:08:32.425Z,27.4
2017-05-28T04:09:32.136Z,27.41
2017-05-28T04:10:32.414Z,27.39
2017-05-28T04:11:32.193Z,27.4
2017-05-28T04:12:32.538Z,27.37
2017-05-28T04:13:32.251Z,27.37
2017-05-28T04:14:32.588Z,27.4
2017-05-28T04:15:32.254Z,27.39
2017-05-28T04:16:32.658Z,27.41
2017-05-28T04:17:32.687Z,27.37
2017-05-28T04:18:32.716Z,27.44
2017-05-28T04:19:32.749Z,27.37
2017-05-28T04:20:32.977Z,27.37
2017-05-28T04:21:32.806Z,27.39
2017-05-28T04:22:32.526Z,27.39
2017-05-28T04:23:32.245Z,27.37
2017-05-28T04:24:32.896Z,27.4
2017-05-28T04:25:33.177Z,27.39
2017-05-28T04:26:32.957Z,27.4
2017-05-28T04:27:32.988Z,27.41
2017-05-28T04:28:32.708Z,27.43
2017-05-28T04:29:33.047Z,27.41
2017-05-28T04:30:33.280Z,27.4
2017-05-28T04:31:32.794Z,27.36
2017-05-28T04:32:33.131Z,27.36
2017-05-28T04:33:33.164Z,27.41
2017-05-28T04:34:32.882Z,27.39
2017-05-28T04:35:33.476Z,27.46
2017-05-28T04:36:32.630Z,27.43
2017-05-28T04:37:33.288Z,27.37
2017-05-28T04:38:33.317Z,27.37
2017-05-28T04:39:33.341Z,27.43
2017-05-28T04:40:33.628Z,27.41
2017-05-28T04:41:33.398Z,27.32
2017-05-28T04:42:33.435Z,27.37
2017-05-28T04:43:33.463Z,27.39
2017-05-28T04:44:33.496Z,27.37
2017-05-28T04:45:33.772Z,27.44
2017-05-28T04:46:33.234Z,27.41
2017-05-28T04:47:33.583Z,27.39
2017-05-28T04:48:33.616Z,27.37
2017-05-28T04:49:33.645Z,27.41
2017-05-28T04:50:33.917Z,27.37
2017-05-28T04:51:33.391Z,27.4
2017-05-28T04:52:33.424Z,27.37
2017-05-28T04:53:33.767Z,27.31
2017-05-28T04:54:33.481Z,27.34
2017-05-28T04:55:34.078Z,27.41
2017-05-28T04:56:33.859Z,27.36
2017-05-28T04:57:33.575Z,27.36
2017-05-28T04:58:33.599Z,27.34
2017-05-28T04:59:33.629Z,27.37
2017-05-28T05:00:34.226Z,27.34
2017-05-28T05:01:34.015Z,27.29
2017-05-28T05:02:33.719Z,27.32
2017-05-28T05:03:33.748Z,27.37
2017-05-28T05:04:34.093Z,27.37
2017-05-28T05:05:34.373Z,27.31
2017-05-28T05:06:33.522Z,27.32
2017-05-28T05:07:34.180Z,27.34
2017-05-28T05:08:33.891Z,27.29
2017-05-28T05:09:34.242Z,27.32
2017-05-28T05:10:34.472Z,27.32
2017-05-28T05:11:33.983Z,27.32
2017-05-28T05:12:34.331Z,27.31
2017-05-28T05:13:34.037Z,27.41
2017-05-28T05:14:34.390Z,27.32
2017-05-28T05:15:34.665Z,27.36
2017-05-28T05:16:34.445Z,27.37
2017-05-28T05:17:34.477Z,27.37
2017-05-28T05:18:34.196Z,27.34
2017-05-28T05:19:34.590Z,27.34
2017-05-28T05:20:34.820Z,27.34
2017-05-28T05:21:34.599Z,27.36
2017-05-28T05:22:34.635Z,27.39
2017-05-28T05:23:34.345Z,27.41
2017-05-28T05:24:34.377Z,27.4
2017-05-28T05:25:34.970Z,27.39
2017-05-28T05:26:34.743Z,27.37
2017-05-28T05:27:34.779Z,27.37
2017-05-28T05:28:34.813Z,27.47
2017-05-28T05:29:34.837Z,27.41
2017-05-28T05:30:34.805Z,27.41
2017-05-28T05:31:34.899Z,27.39
2017-05-28T05:32:34.612Z,27.41
2017-05-28T05:33:34.958Z,27.31
2017-05-28T05:34:34.675Z,27.37
2017-05-28T05:35:35.266Z,27.34
2017-05-28T05:36:35.043Z,27.32
2017-05-28T05:37:34.763Z,27.36
2017-05-28T05:38:34.796Z,27.4
2017-05-28T05:39:35.146Z,27.37
2017-05-28T05:40:35.094Z,27.39
2017-05-28T05:41:35.196Z,27.36
2017-05-28T05:42:35.229Z,27.37
2017-05-28T05:43:34.945Z,27.46
2017-05-28T05:44:35.276Z,27.39
2017-05-28T05:45:35.202Z,27.36
2017-05-28T05:46:34.718Z,27.47
2017-05-28T05:47:35.377Z,27.36
2017-05-28T05:48:35.410Z,27.41
2017-05-28T05:49:35.118Z,27.39
2017-05-28T05:50:35.090Z,27.37
2017-05-28T05:51:35.504Z,27.44
2017-05-28T05:52:35.211Z,27.39
2017-05-28T05:53:35.245Z,27.41
2017-05-28T05:54:35.590Z,27.41
2017-05-28T05:55:35.869Z,27.31
2017-05-28T05:56:35.020Z,27.39
2017-05-28T05:57:35.360Z,27.37
2017-05-28T05:58:35.717Z,27.47
2017-05-28T05:59:35.411Z,27.39
2017-05-28T06:00:36.010Z,27.36
2017-05-28T06:01:35.485Z,27.47
2017-05-28T06:02:35.821Z,27.41
2017-05-28T06:03:35.857Z,27.5
2017-05-28T06:04:35.886Z,27.37
2017-05-28T06:05:36.162Z,27.43
2017-05-28T06:06:36.009Z,27.41
2017-05-28T06:07:35.969Z,27.46
2017-05-28T06:08:36.009Z,27.4
2017-05-28T06:09:36.032Z,27.5
2017-05-28T06:10:35.998Z,27.43
2017-05-28T06:11:35.778Z,27.39
2017-05-28T06:12:35.813Z,27.41
2017-05-28T06:13:36.154Z,27.41
2017-05-28T06:14:36.183Z,27.47
2017-05-28T06:15:36.150Z,27.49
2017-05-28T06:16:35.928Z,27.49
2017-05-28T06:17:36.272Z,27.37
2017-05-28T06:18:36.304Z,27.44
2017-05-28T06:19:36.330Z,27.51
2017-05-28T06:20:35.930Z,27.49
2017-05-28T06:21:36.396Z,27.41
2017-05-28T06:22:36.420Z,27.54
2017-05-28T06:23:36.140Z,27.5
2017-05-28T06:24:36.165Z,27.47
2017-05-28T06:25:36.771Z,27.51
2017-05-28T06:26:36.227Z,27.46
2017-05-28T06:27:36.573Z,27.55
2017-05-28T06:28:36.289Z,27.46
2017-05-28T06:29:36.322Z,27.5
2017-05-28T06:30:36.351Z,27.5
2017-05-28T06:31:36.696Z,27.5
2017-05-28T06:32:36.731Z,27.55
2017-05-28T06:33:36.827Z,27.55
2017-05-28T06:34:36.159Z,27.54
2017-05-28T06:35:36.815Z,27.47
2017-05-28T06:36:36.527Z,27.44
2017-05-28T06:37:36.872Z,27.49
2017-05-28T06:38:36.585Z,27.57
2017-05-28T06:39:36.936Z,27.51
2017-05-28T06:40:36.959Z,27.54
2017-05-28T06:41:36.681Z,27.57
2017-05-28T06:42:36.702Z,27.51
2017-05-28T06:43:37.059Z,27.51
2017-05-28T06:44:36.771Z,27.57
2017-05-28T06:45:36.540Z,27.51
2017-05-28T06:46:37.142Z,27.49
2017-05-28T06:47:37.172Z,27.49
2017-05-28T06:48:36.886Z,27.55
2017-05-28T06:49:36.606Z,27.54
2017-05-28T06:50:36.949Z,27.47
2017-05-28T06:51:37.292Z,27.6
2017-05-28T06:52:37.325Z,27.49
2017-05-28T06:53:37.042Z,27.57
2017-05-28T06:54:37.075Z,27.5
2017-05-28T06:55:37.408Z,27.6
2017-05-28T06:56:37.435Z,27.6
2017-05-28T06:57:37.478Z,27.59
2017-05-28T06:58:37.189Z,27.51
2017-05-28T06:59:37.585Z,27.5
2017-05-28T07:00:37.564Z,27.47
2017-05-28T07:01:37.593Z,27.54
2017-05-28T07:02:37.306Z,27.62
2017-05-28T07:03:37.649Z,27.57
2017-05-28T07:04:37.688Z,27.54
2017-05-28T07:05:37.703Z,27.55
2017-05-28T07:06:37.746Z,27.5
2017-05-28T07:07:37.775Z,27.49
2017-05-28T07:08:37.805Z,27.44
2017-05-28T07:09:37.837Z,27.47
2017-05-28T07:10:37.551Z,27.59
2017-05-28T07:11:37.893Z,27.59
2017-05-28T07:12:37.921Z,27.47
2017-05-28T07:13:37.953Z,27.47
2017-05-28T07:14:37.668Z,27.54
2017-05-28T07:15:37.387Z,27.51
2017-05-28T07:16:37.733Z,27.5
2017-05-28T07:17:38.070Z,27.6
2017-05-28T07:18:38.102Z,27.59
2017-05-28T07:19:38.123Z,27.46
2017-05-28T07:20:38.163Z,27.57
2017-05-28T07:21:37.885Z,27.5
2017-05-28T07:22:37.909Z,27.51
2017-05-28T07:23:37.939Z,27.6
2017-05-28T07:24:37.967Z,27.55
2017-05-28T07:25:38.003Z,27.51
2017-05-28T07:26:38.339Z,27.62
2017-05-28T07:27:38.373Z,27.5
2017-05-28T07:28:38.398Z,27.54
2017-05-28T07:29:38.439Z,27.7
2017-05-28T07:30:38.478Z,27.59
2017-05-28T07:31:38.180Z,27.59
2017-05-28T07:32:38.215Z,27.62
2017-05-28T07:33:38.235Z,27.6
2017-05-28T07:34:38.271Z,27.57
2017-05-28T07:35:38.619Z,27.55
2017-05-28T07:36:38.841Z,27.63
2017-05-28T07:37:38.357Z,27.51
2017-05-28T07:38:38.699Z,27.55
2017-05-28T07:39:38.740Z,27.69
2017-05-28T07:40:38.764Z,27.57
2017-05-28T07:41:39.046Z,27.6
2017-05-28T07:42:38.513Z,27.65
2017-05-28T07:43:38.855Z,27.65
2017-05-28T07:44:38.572Z,27.65
2017-05-28T07:45:38.925Z,27.59
2017-05-28T07:46:39.197Z,27.63
2017-05-28T07:47:38.978Z,27.67
2017-05-28T07:48:39.006Z,27.62
2017-05-28T07:49:38.728Z,27.63
2017-05-28T07:50:38.749Z,27.69
2017-05-28T07:51:39.037Z,27.6
2017-05-28T07:52:38.819Z,27.65
2017-05-28T07:53:38.539Z,27.69
2017-05-28T07:54:39.189Z,27.69
2017-05-28T07:55:39.216Z,27.62
2017-05-28T07:56:39.560Z,27.66
2017-05-28T07:57:38.967Z,27.65
2017-05-28T07:58:38.991Z,27.67
2017-05-28T07:59:39.015Z,27.66
2017-05-28T08:00:39.056Z,27.6
2017-05-28T08:01:39.636Z,27.63
2017-05-28T08:02:38.806Z,27.63
2017-05-28T08:03:39.456Z,27.69
2017-05-28T08:04:39.496Z,27.66
2017-05-28T08:05:39.201Z,27.66
2017-05-28T08:06:39.792Z,27.74
2017-05-28T08:07:39.582Z,27.59
2017-05-28T08:08:39.287Z,27.75
2017-05-28T08:09:39.332Z,27.74
2017-05-28T08:10:39.668Z,27.78
2017-05-28T08:11:39.893Z,27.7
2017-05-28T08:12:39.734Z,27.7
2017-05-28T08:13:39.763Z,27.75
2017-05-28T08:14:39.808Z,27.74
2017-05-28T08:15:39.509Z,27.77
2017-05-28T08:16:40.102Z,27.69
2017-05-28T08:17:39.554Z,27.77
2017-05-28T08:18:39.911Z,27.74
2017-05-28T08:19:39.939Z,27.75
2017-05-28T08:20:39.965Z,27.74
2017-05-28T08:21:40.311Z,27.69
2017-05-28T08:22:40.030Z,27.81
2017-05-28T08:23:40.072Z,27.85
2017-05-28T08:24:39.781Z,27.75
2017-05-28T08:25:40.121Z,27.79
2017-05-28T08:26:40.401Z,27.81
2017-05-28T08:27:40.197Z,27.81
2017-05-28T08:28:40.216Z,27.78
2017-05-28T08:29:40.247Z,27.88
2017-05-28T08:30:40.269Z,27.81
2017-05-28T08:31:40.549Z,27.81
2017-05-28T08:32:40.327Z,27.84
2017-05-28T08:33:40.364Z,27.88
2017-05-28T08:34:40.393Z,27.96
2017-05-28T08:35:40.105Z,27.81
2017-05-28T08:36:40.709Z,27.82
2017-05-28T08:37:40.495Z,27.94
2017-05-28T08:38:40.510Z,27.92
2017-05-28T08:39:40.540Z,27.99
2017-05-28T08:40:40.574Z,27.9
2017-05-28T08:41:40.298Z,27.92
2017-05-28T08:42:40.323Z,27.92
2017-05-28T08:43:40.352Z,27.94
2017-05-28T08:44:40.696Z,27.88
2017-05-28T08:45:40.721Z,27.96
2017-05-28T08:46:40.749Z,27.93
2017-05-28T08:47:40.803Z,27.93
2017-05-28T08:48:40.807Z,27.88
2017-05-28T08:49:40.851Z,27.92
2017-05-28T08:50:40.873Z,27.97
2017-05-28T08:51:40.604Z,27.96
2017-05-28T08:52:40.939Z,27.99
2017-05-28T08:53:40.657Z,27.99
2017-05-28T08:54:40.997Z,27.97
2017-05-28T08:55:41.041Z,27.93
2017-05-28T08:56:41.054Z,28.02
2017-05-28T08:57:41.089Z,27.97
2017-05-28T08:58:41.121Z,28.06
2017-05-28T08:59:41.145Z,28.04
2017-05-28T09:00:41.182Z,27.99
2017-05-28T09:01:41.211Z,28.04
2017-05-28T09:02:40.928Z,28.06
2017-05-28T09:03:41.277Z,28.02
2017-05-28T09:04:41.304Z,28.03
2017-05-28T09:05:41.329Z,28.12
2017-05-28T09:06:41.360Z,28.06
2017-05-28T09:07:41.079Z,28.06
2017-05-28T09:08:41.420Z,28.06
2017-05-28T09:09:41.457Z,28.09
2017-05-28T09:10:41.482Z,28.15
2017-05-28T09:11:41.227Z,28.15
2017-05-28T09:12:41.251Z,28.07
2017-05-28T09:13:41.572Z,28.11
2017-05-28T09:14:41.605Z,28.15
2017-05-28T09:15:41.314Z,28.15
2017-05-28T09:16:41.355Z,28.18
2017-05-28T09:17:41.384Z,28.19
2017-05-28T09:18:41.414Z,28.22
2017-05-28T09:19:41.754Z,28.21
2017-05-28T09:20:41.473Z,28.25
2017-05-28T09:21:41.819Z,28.18
2017-05-28T09:22:41.848Z,28.25
2017-05-28T09:23:41.573Z,28.19
2017-05-28T09:24:41.589Z,28.21
2017-05-28T09:25:41.624Z,28.22
2017-05-28T09:26:41.973Z,28.24
2017-05-28T09:27:42.010Z,28.27
2017-05-28T09:28:42.033Z,28.3
2017-05-28T09:29:41.750Z,28.36
2017-05-28T09:30:41.778Z,28.27
2017-05-28T09:31:42.122Z,28.31
2017-05-28T09:32:41.838Z,28.34
2017-05-28T09:33:42.185Z,28.29
2017-05-28T09:34:42.214Z,28.22
2017-05-28T09:35:42.242Z,28.33
2017-05-28T09:36:42.278Z,28.31
2017-05-28T09:37:42.299Z,28.31
2017-05-28T09:38:42.342Z,28.25
2017-05-28T09:39:42.063Z,28.33
2017-05-28T09:40:42.394Z,28.3
2017-05-28T09:41:42.423Z,28.27
2017-05-28T09:42:42.456Z,28.33
2017-05-28T09:43:42.484Z,28.34
2017-05-28T09:44:42.207Z,28.4
2017-05-28T09:45:42.547Z,28.41
2017-05-28T09:46:42.270Z,28.37
2017-05-28T09:47:42.608Z,28.37
2017-05-28T09:48:42.326Z,28.37
2017-05-28T09:49:42.670Z,28.37
2017-05-28T09:50:42.691Z,28.44
2017-05-28T09:51:42.107Z,28.39
2017-05-28T09:52:42.769Z,28.37
2017-05-28T09:53:42.482Z,28.33
2017-05-28T09:54:42.823Z,28.41
2017-05-28T09:55:42.850Z,28.31
2017-05-28T09:56:42.888Z,28.44
2017-05-28T09:57:42.912Z,28.44
2017-05-28T09:58:42.945Z,28.34
2017-05-28T09:59:42.667Z,28.4
2017-05-28T10:00:43.008Z,28.33
2017-05-28T10:01:42.725Z,28.41
2017-05-28T10:02:42.760Z,28.34
2017-05-28T10:03:42.782Z,28.39
2017-05-28T10:04:43.183Z,28.43
2017-05-28T10:05:43.159Z,28.46
2017-05-28T10:06:43.180Z,28.48
2017-05-28T10:07:43.217Z,28.41
2017-05-28T10:08:43.253Z,28.43
2017-05-28T10:09:43.279Z,28.43
2017-05-28T10:10:43.312Z,28.51
2017-05-28T10:11:43.028Z,28.51
2017-05-28T10:12:42.750Z,28.41
2017-05-28T10:13:43.402Z,28.49
2017-05-28T10:14:42.811Z,28.49
2017-05-28T10:15:43.467Z,28.54
2017-05-28T10:16:43.493Z,28.49
2017-05-28T10:17:43.529Z,28.51
2017-05-28T10:18:43.236Z,28.49
2017-05-28T10:19:43.587Z,28.39
2017-05-28T10:20:43.675Z,28.44
2017-05-28T10:21:43.652Z,28.55
2017-05-28T10:22:43.613Z,28.48
2017-05-28T10:23:43.394Z,28.54
2017-05-28T10:24:43.735Z,28.56
2017-05-28T10:25:43.763Z,28.49
2017-05-28T10:26:43.800Z,28.55
2017-05-28T10:27:44.033Z,28.55
2017-05-28T10:28:43.854Z,28.51
2017-05-28T10:29:43.893Z,28.58
2017-05-28T10:30:43.923Z,28.52
2017-05-28T10:31:43.952Z,28.61
2017-05-28T10:32:44.224Z,28.55
2017-05-28T10:33:43.706Z,28.56
2017-05-28T10:34:43.723Z,28.58
2017-05-28T10:35:44.074Z,28.61
2017-05-28T10:36:44.099Z,28.73
2017-05-28T10:37:44.019Z,28.66
2017-05-28T10:38:44.166Z,28.66
2017-05-28T10:39:44.195Z,28.66
2017-05-28T10:40:43.603Z,28.7
2017-05-28T10:41:43.940Z,28.62
2017-05-28T10:42:43.918Z,28.59
2017-05-28T10:43:44.335Z,28.64
2017-05-28T10:44:44.088Z,28.62
2017-05-28T10:45:44.439Z,28.66
2017-05-28T10:46:44.417Z,28.66
2017-05-28T10:47:44.641Z,28.67
2017-05-28T10:48:44.474Z,28.73
2017-05-28T10:49:44.183Z,28.67
2017-05-28T10:50:44.534Z,28.77
2017-05-28T10:51:44.253Z,28.68
2017-05-28T10:52:44.846Z,28.67
2017-05-28T10:53:44.630Z,28.76
2017-05-28T10:54:44.656Z,28.7
2017-05-28T10:55:44.688Z,28.8
2017-05-28T10:56:44.405Z,28.71
2017-05-28T10:57:44.689Z,28.73
2017-05-28T10:58:44.779Z,28.76
2017-05-28T10:59:44.812Z,28.76
2017-05-28T11:00:44.836Z,28.76
2017-05-28T11:01:44.561Z,28.76
2017-05-28T11:02:45.155Z,28.8
2017-05-28T11:03:44.934Z,28.74
2017-05-28T11:04:44.968Z,28.83
2017-05-28T11:05:45.001Z,28.88
2017-05-28T11:06:44.718Z,28.85
2017-05-28T11:07:45.261Z,28.89
2017-05-28T11:08:45.091Z,28.88
2017-05-28T11:09:44.806Z,28.85
2017-05-28T11:10:45.161Z,28.86
2017-05-28T11:11:45.180Z,28.89
2017-05-28T11:12:45.412Z,28.9
2017-05-28T11:13:45.242Z,28.86
2017-05-28T11:14:44.963Z,28.93
2017-05-28T11:15:45.304Z,28.86
2017-05-28T11:16:45.333Z,28.93
2017-05-28T11:17:45.621Z,29.04
2017-05-28T11:18:45.396Z,29.04
2017-05-28T11:19:45.426Z,28.93
2017-05-28T11:20:45.469Z,28.98
2017-05-28T11:21:45.493Z,28.95
2017-05-28T11:22:45.405Z,28.95
2017-05-28T11:23:45.563Z,28.96
2017-05-28T11:24:45.588Z,28.93
2017-05-28T11:25:45.613Z,29.02
2017-05-28T11:26:45.325Z,29.06
2017-05-28T11:27:45.614Z,29.06
2017-05-28T11:28:45.710Z,29.14
2017-05-28T11:29:45.737Z,29.23
2017-05-28T11:30:45.764Z,29.16
2017-05-28T11:31:45.805Z,29.24
2017-05-28T11:32:46.033Z,29.23
2017-05-28T11:33:45.555Z,29.21
2017-05-28T11:34:45.888Z,29.28
2017-05-28T11:35:45.926Z,29.46
2017-05-28T11:36:45.645Z,29.51
2017-05-28T11:37:46.246Z,29.55
2017-05-28T11:38:45.706Z,29.68
2017-05-28T11:39:46.053Z,29.79
2017-05-28T11:40:46.081Z,29.98
2017-05-28T11:41:46.145Z,30.15
2017-05-28T11:42:46.405Z,30.22
2017-05-28T11:43:46.173Z,30.34
2017-05-28T11:44:46.213Z,30.38
2017-05-28T11:45:46.235Z,30.54
2017-05-28T11:46:46.274Z,30.73
2017-05-28T11:47:46.247Z,30.86
2017-05-28T11:48:46.344Z,30.94
2017-05-28T11:49:46.373Z,30.99
2017-05-28T11:50:46.396Z,31.13
2017-05-28T11:51:46.430Z,31.25
2017-05-28T11:52:46.719Z,31.41
2017-05-28T11:53:46.504Z,31.47
2017-05-28T11:54:46.533Z,31.61
2017-05-28T11:55:46.254Z,31.73
2017-05-28T11:56:46.598Z,31.86
2017-05-28T11:57:46.642Z,31.96
2017-05-28T11:58:46.677Z,31.96
2017-05-28T11:59:46.697Z,32.14
2017-05-28T12:00:46.728Z,32.21
2017-05-28T12:01:46.766Z,32.22
2017-05-28T12:02:46.797Z,32.33
2017-05-28T12:03:46.828Z,32.48
2017-05-28T12:04:46.581Z,32.55
2017-05-28T12:05:46.905Z,32.59
2017-05-28T12:06:46.311Z,32.74
2017-05-28T12:07:46.651Z,32.75
2017-05-28T12:08:47.022Z,32.77
2017-05-28T12:09:46.729Z,32.92
2017-05-28T12:10:46.761Z,32.97
2017-05-28T12:11:46.798Z,33
2017-05-28T12:12:47.135Z,33.18
2017-05-28T12:13:47.177Z,33.14
2017-05-28T12:14:46.900Z,33.22
2017-05-28T12:15:47.245Z,33.35
2017-05-28T12:16:47.292Z,33.35
2017-05-28T12:17:46.690Z,33.42
2017-05-28T12:18:46.720Z,33.54
2017-05-28T12:19:47.385Z,33.57
2017-05-28T12:20:47.418Z,33.61
2017-05-28T12:21:46.830Z,33.61
2017-05-28T12:22:47.488Z,33.71
2017-05-28T12:23:47.536Z,33.76
2017-05-28T12:24:47.267Z,33.82
2017-05-28T12:25:47.594Z,33.9
2017-05-28T12:26:47.635Z,33.88
2017-05-28T12:27:47.670Z,33.86
2017-05-28T12:28:47.395Z,33.98
2017-05-28T12:29:47.746Z,34.02
2017-05-28T12:30:47.775Z,34.08
2017-05-28T12:31:47.806Z,34.1
2017-05-28T12:32:47.536Z,34.19
2017-05-28T12:33:48.129Z,34.22
2017-05-28T12:34:47.606Z,34.25
2017-05-28T12:35:47.950Z,34.32
2017-05-28T12:36:47.984Z,34.42
2017-05-28T12:37:48.031Z,34.4
2017-05-28T12:38:47.997Z,34.52
2017-05-28T12:39:47.785Z,34.44
2017-05-28T12:40:47.821Z,34.43
2017-05-28T12:41:48.162Z,34.54
2017-05-28T12:42:47.896Z,34.5
2017-05-28T12:43:48.489Z,34.62
2017-05-28T12:44:47.973Z,34.66
2017-05-28T12:45:48.319Z,34.61
2017-05-28T12:46:48.040Z,34.61
2017-05-28T12:47:48.082Z,34.66
2017-05-28T12:48:48.309Z,34.69
2017-05-28T12:49:48.457Z,34.77
2017-05-28T12:50:48.173Z,34.77
2017-05-28T12:51:48.217Z,34.75
2017-05-28T12:52:48.259Z,34.87
2017-05-28T12:53:48.545Z,34.84
2017-05-28T12:54:48.652Z,34.85
2017-05-28T12:55:48.679Z,34.82